createdAt,value
2022-08-14T00:01:59.102Z,37.00
2022-08-14T00:04:31.856Z,36.00
2022-08-14T00:07:01.445Z,36.50
2022-08-14T00:09:28.389Z,35.00
2022-08-14T00:12:00.089Z,35.00
2022-08-14T00:14:27.938Z,35.00
2022-08-14T00:16:56.121Z,56.00
2022-08-14T00:19:23.570Z,59.75
2022-08-14T00:21:53.800Z,43.75
2022-08-14T00:24:23.247Z,46.50
2022-08-14T00:27:02.036Z,38.75
2022-08-14T00:29:40.656Z,36.50
2022-08-14T00:32:55.993Z,37.00
2022-08-14T00:34:57.039Z,36.00
2022-08-14T00:37:26.128Z,35.25
2022-08-14T00:39:53.179Z,35.00
2022-08-14T00:42:55.784Z,35.00
2022-08-14T00:45:11.753Z,34.00
2022-08-14T00:47:44.974Z,34.50
2022-08-14T00:50:16.777Z,35.75
2022-08-14T00:52:51.115Z,35.00
2022-08-14T00:55:19.200Z,35.00
2022-08-14T00:57:46.905Z,34.50
2022-08-14T01:00:34.472Z,36.00
2022-08-14T01:03:06.448Z,34.00
2022-08-14T01:05:41.783Z,35.00
2022-08-14T01:08:57.480Z,34.00
2022-08-14T01:11:15.646Z,34.00
2022-08-14T01:13:55.722Z,35.00
2022-08-14T01:16:26.323Z,34.00
2022-08-14T01:19:02.248Z,35.75
2022-08-14T01:21:38.743Z,34.00
2022-08-14T01:24:13.778Z,35.00
2022-08-14T01:27:00.327Z,34.75
2022-08-14T01:29:48.658Z,34.00
2022-08-14T01:32:22.859Z,34.00
2022-08-14T01:35:19.429Z,34.00
2022-08-14T01:37:54.669Z,35.00
2022-08-14T01:40:36.209Z,34.50
2022-08-14T01:43:12.338Z,36.00
2022-08-14T01:45:40.583Z,34.75
2022-08-14T01:48:13.584Z,35.00
2022-08-14T01:50:42.498Z,35.50
2022-08-14T01:53:10.588Z,37.00
2022-08-14T01:55:40.528Z,35.00
2022-08-14T01:58:20.244Z,36.00
2022-08-14T02:00:52.143Z,34.25
2022-08-14T02:03:19.068Z,35.00
2022-08-14T02:05:49.048Z,36.00
2022-08-14T02:08:16.251Z,34.00
2022-08-14T02:10:49.698Z,34.00
2022-08-14T02:13:21.130Z,34.00
2022-08-14T02:15:50.213Z,34.50
2022-08-14T02:18:18.317Z,34.00
2022-08-14T02:20:46.134Z,35.00
2022-08-14T02:23:14.549Z,36.00
2022-08-14T02:25:42.368Z,34.00
2022-08-14T02:28:24.682Z,34.00
2022-08-14T02:30:56.913Z,34.00
2022-08-14T02:33:24.118Z,34.00
2022-08-14T02:36:05.084Z,34.00
2022-08-14T02:38:43.524Z,34.00
2022-08-14T02:41:12.701Z,34.00
2022-08-14T02:43:46.180Z,34.00
2022-08-14T02:46:20.320Z,34.00
2022-08-14T02:49:03.389Z,34.00
2022-08-14T02:51:34.691Z,33.00
2022-08-14T02:54:05.059Z,35.00
2022-08-14T02:57:14.322Z,33.00
2022-08-14T02:59:24.824Z,34.00
2022-08-14T03:01:59.193Z,35.00
2022-08-14T03:04:29.028Z,34.00
2022-08-14T03:06:57.866Z,33.25
2022-08-14T03:10:24.675Z,33.00
2022-08-14T03:12:31.219Z,35.00
2022-08-14T03:15:05.212Z,33.00
2022-08-14T03:17:56.637Z,34.00
2022-08-14T03:20:19.932Z,35.00
2022-08-14T03:22:50.966Z,34.00
2022-08-14T03:25:17.991Z,33.00
2022-08-14T03:27:47.819Z,32.50
2022-08-14T03:30:15.640Z,33.25
2022-08-14T03:32:50.680Z,34.00
2022-08-14T03:35:18.422Z,34.00
2022-08-14T03:39:13.026Z,33.00
2022-08-14T03:40:33.799Z,32.75
2022-08-14T03:43:00.595Z,33.00
2022-08-14T03:45:34.694Z,34.00
2022-08-14T03:48:03.831Z,33.00
2022-08-14T03:50:38.054Z,33.00
2022-08-14T03:53:05.712Z,33.00
2022-08-14T03:55:34.412Z,34.00
2022-08-14T03:58:03.104Z,34.00
2022-08-14T04:00:43.182Z,36.00
2022-08-14T04:03:19.579Z,35.00
2022-08-14T04:05:50.419Z,34.00
2022-08-14T04:08:29.930Z,33.50
2022-08-14T04:11:02.865Z,33.75
2022-08-14T04:13:37.834Z,34.00
2022-08-14T04:16:25.512Z,34.00
2022-08-14T04:18:59.782Z,33.50
2022-08-14T04:21:28.771Z,33.00
2022-08-14T04:23:59.891Z,34.00
2022-08-14T04:26:42.475Z,33.00
2022-08-14T04:29:15.470Z,33.25
2022-08-14T04:33:00.715Z,34.00
2022-08-14T04:34:31.049Z,33.75
2022-08-14T04:36:57.880Z,33.50
2022-08-14T04:39:24.787Z,34.00
2022-08-14T04:41:51.598Z,35.50
2022-08-14T04:44:36.276Z,34.00
2022-08-14T04:47:04.504Z,35.00
2022-08-14T04:49:33.124Z,33.75
2022-08-14T04:52:18.914Z,34.00
2022-08-14T04:54:50.088Z,34.50
2022-08-14T04:57:17.618Z,34.00
2022-08-14T04:59:46.257Z,34.00
2022-08-14T05:02:13.244Z,34.00
2022-08-14T05:04:40.475Z,34.00
2022-08-14T05:07:12.536Z,35.50
2022-08-14T05:09:39.402Z,35.00
2022-08-14T05:13:13.607Z,36.00
2022-08-14T05:15:01.893Z,35.00
2022-08-14T05:17:43.850Z,34.50
2022-08-14T05:21:04.154Z,34.50
2022-08-14T05:22:58.350Z,35.00
2022-08-14T05:25:30.663Z,35.50
2022-08-14T05:27:58.050Z,34.50
2022-08-14T05:30:26.157Z,35.00
2022-08-14T05:32:54.247Z,35.00
2022-08-14T05:35:21.821Z,36.00
2022-08-14T05:37:48.802Z,37.00
2022-08-14T05:40:16.391Z,35.00
2022-08-14T05:42:46.579Z,34.00
2022-08-14T05:45:19.941Z,35.25
2022-08-14T05:47:46.893Z,36.00
2022-08-14T05:50:19.147Z,35.00
2022-08-14T05:52:49.285Z,34.75
2022-08-14T05:55:21.773Z,35.00
2022-08-14T05:57:51.986Z,35.00
2022-08-14T06:00:24.704Z,34.50
2022-08-14T06:02:57.229Z,35.00
2022-08-14T06:05:24.683Z,35.50
2022-08-14T06:08:31.050Z,36.00
2022-08-14T06:11:06.949Z,36.50
2022-08-14T06:13:45.872Z,36.25
2022-08-14T06:16:18.239Z,35.00
2022-08-14T06:18:52.418Z,36.00
2022-08-14T06:21:23.502Z,35.00
2022-08-14T06:23:53.519Z,35.00
2022-08-14T06:26:22.479Z,35.00
2022-08-14T06:28:52.038Z,35.50
2022-08-14T06:31:25.904Z,36.00
2022-08-14T06:35:02.675Z,35.00
2022-08-14T06:36:43.347Z,35.50
2022-08-14T06:39:11.520Z,36.00
2022-08-14T06:41:57.971Z,35.00
2022-08-14T06:44:33.256Z,35.00
2022-08-14T06:47:04.779Z,35.50
2022-08-14T06:52:40.043Z,36.00
2022-08-14T06:55:19.978Z,37.00
2022-08-14T06:58:46.774Z,38.00
2022-08-14T07:05:55.518Z,35.00
2022-08-14T07:08:26.167Z,35.00
2022-08-14T07:11:01.410Z,36.00
2022-08-14T07:13:30.668Z,37.00
2022-08-14T07:16:00.493Z,36.00
2022-08-14T07:18:34.765Z,35.00
2022-08-14T07:21:03.500Z,35.00
2022-08-14T07:23:50.651Z,35.25
2022-08-14T07:26:18.568Z,35.50
2022-08-14T07:28:45.506Z,36.50
2022-08-14T07:31:13.122Z,36.00
2022-08-14T07:33:45.503Z,36.00
2022-08-14T07:36:29.945Z,37.00
2022-08-14T07:39:03.148Z,37.00
2022-08-14T07:41:39.291Z,37.00
2022-08-14T07:44:28.932Z,36.00
2022-08-14T07:47:01.919Z,37.50
2022-08-14T07:49:32.473Z,38.00
2022-08-14T07:52:00.085Z,37.00
2022-08-14T07:54:30.039Z,37.50
2022-08-14T07:57:00.065Z,37.00
2022-08-14T07:59:42.257Z,37.00
2022-08-14T08:02:17.303Z,37.00
2022-08-14T08:04:49.582Z,37.00
2022-08-14T08:07:17.066Z,37.75
2022-08-14T08:10:14.156Z,37.00
2022-08-14T08:13:02.472Z,38.00
2022-08-14T08:15:35.128Z,37.00
2022-08-14T08:18:06.128Z,37.00
2022-08-14T08:20:44.209Z,37.50
2022-08-14T08:23:22.637Z,37.00
2022-08-14T08:25:57.958Z,38.00
2022-08-14T08:28:27.692Z,37.00
2022-08-14T08:31:04.391Z,36.50
2022-08-14T08:33:37.194Z,38.00
2022-08-14T08:36:13.026Z,37.00
2022-08-14T08:39:18.383Z,37.50
2022-08-14T08:41:45.189Z,38.00
2022-08-14T08:44:17.505Z,38.75
2022-08-14T08:46:59.448Z,37.00
2022-08-14T08:49:42.858Z,37.75
2022-08-14T08:52:24.443Z,37.00
2022-08-14T08:54:54.756Z,36.00
2022-08-14T08:57:21.771Z,36.00
2022-08-14T08:59:48.616Z,36.50
2022-08-14T09:02:22.372Z,36.00
2022-08-14T09:04:53.891Z,37.25
2022-08-14T09:07:27.429Z,37.00
2022-08-14T09:09:59.187Z,37.00
2022-08-14T09:12:32.289Z,36.00
2022-08-14T09:15:11.824Z,36.00
2022-08-14T09:18:05.999Z,36.75
2022-08-14T09:20:33.287Z,36.75
2022-08-14T09:23:07.969Z,36.75
2022-08-14T09:25:59.982Z,37.00
2022-08-14T09:28:24.299Z,36.00
2022-08-14T09:30:55.159Z,36.00
2022-08-14T09:33:56.605Z,36.00
2022-08-14T09:36:36.179Z,36.00
2022-08-14T09:39:23.124Z,36.00
2022-08-14T09:42:21.717Z,36.25
2022-08-14T09:45:21.755Z,36.75
2022-08-14T09:47:55.127Z,37.00
2022-08-14T09:50:27.586Z,37.00
2022-08-14T09:53:05.132Z,36.00
2022-08-14T09:55:41.483Z,36.00
2022-08-14T09:58:19.399Z,36.00
2022-08-14T10:00:53.282Z,37.00
2022-08-14T10:03:37.509Z,37.75
2022-08-14T10:06:05.365Z,37.00
2022-08-14T10:08:42.191Z,37.00
2022-08-14T10:11:35.100Z,36.25
2022-08-14T10:14:29.332Z,37.75
2022-08-14T10:17:08.565Z,37.00
2022-08-14T10:19:46.963Z,37.00
2022-08-14T10:23:14.422Z,37.00
2022-08-14T10:25:22.609Z,37.00
2022-08-14T10:27:58.148Z,37.00
2022-08-14T10:30:34.826Z,37.00
2022-08-14T10:33:01.823Z,37.00
2022-08-14T10:35:40.120Z,37.00
2022-08-14T10:38:07.480Z,37.00
2022-08-14T10:40:37.835Z,37.00
2022-08-14T10:43:23.298Z,38.00
2022-08-14T10:46:03.454Z,37.50
2022-08-14T10:49:02.528Z,37.00
2022-08-14T10:51:33.896Z,37.00
2022-08-14T10:54:17.018Z,38.00
2022-08-14T10:56:53.577Z,38.00
2022-08-14T10:59:30.826Z,37.00
2022-08-14T11:02:35.780Z,38.00
2022-08-14T11:05:17.476Z,37.50
2022-08-14T11:07:56.864Z,38.00
2022-08-14T11:10:43.926Z,38.00
2022-08-14T11:13:16.795Z,37.50
2022-08-14T11:15:44.229Z,38.00
2022-08-14T11:18:20.093Z,38.00
2022-08-14T11:20:52.895Z,37.25
2022-08-14T11:23:28.736Z,39.00
2022-08-14T11:26:07.216Z,39.00
2022-08-14T11:28:46.776Z,39.50
2022-08-14T11:31:22.183Z,39.00
2022-08-14T11:33:54.190Z,38.00
2022-08-14T11:36:24.220Z,38.00
2022-08-14T11:39:22.991Z,38.00
2022-08-14T11:42:55.578Z,37.00
2022-08-14T11:44:51.104Z,37.00
2022-08-14T11:47:20.857Z,38.00
2022-08-14T11:49:48.197Z,38.00
2022-08-14T11:52:19.487Z,39.00
2022-08-14T11:54:57.776Z,38.00
2022-08-14T11:57:25.170Z,38.00
2022-08-14T12:00:08.501Z,38.00
2022-08-14T12:03:03.301Z,39.00
2022-08-14T12:05:34.103Z,38.00
2022-08-14T12:08:06.770Z,38.00
2022-08-14T12:10:42.999Z,37.00
2022-08-14T12:13:18.066Z,36.50
2022-08-14T12:15:56.705Z,37.50
2022-08-14T12:18:37.262Z,38.00
2022-08-14T12:21:25.639Z,38.00
2022-08-14T12:24:08.536Z,36.50
2022-08-14T12:26:59.501Z,37.00
2022-08-14T12:29:26.378Z,37.00
2022-08-14T12:32:23.870Z,37.00
2022-08-14T12:34:54.510Z,37.00
2022-08-14T12:37:30.388Z,38.00
2022-08-14T12:40:12.652Z,36.00
2022-08-14T12:42:47.568Z,36.00
2022-08-14T12:45:31.880Z,36.75
2022-08-14T12:48:21.181Z,36.50
2022-08-14T12:50:51.734Z,36.50
2022-08-14T12:53:20.310Z,36.00
2022-08-14T12:56:21.416Z,38.25
2022-08-14T12:58:59.831Z,37.50
2022-08-14T13:01:30.971Z,37.00
2022-08-14T13:04:18.846Z,35.25
2022-08-14T13:06:50.775Z,36.00
2022-08-14T13:09:23.329Z,36.00
2022-08-14T13:11:58.794Z,37.00
2022-08-14T13:14:50.214Z,36.00
2022-08-14T13:17:19.864Z,36.00
2022-08-14T13:19:51.077Z,36.00
2022-08-14T13:22:33.294Z,36.00
2022-08-14T13:25:06.681Z,36.00
2022-08-14T13:27:39.103Z,36.00
2022-08-14T13:30:10.571Z,35.00
2022-08-14T13:32:47.294Z,35.75
2022-08-14T13:35:18.058Z,36.50
2022-08-14T13:38:01.359Z,39.00
2022-08-14T13:40:28.459Z,39.00
2022-08-14T13:42:57.644Z,39.00
2022-08-14T13:45:33.867Z,38.00
2022-08-14T13:48:32.427Z,37.50
2022-08-14T13:51:10.604Z,38.00
2022-08-14T13:54:07.020Z,37.50
2022-08-14T13:56:41.880Z,37.00
2022-08-14T13:59:10.371Z,37.00
2022-08-14T14:01:44.813Z,37.00
2022-08-14T14:04:19.333Z,37.00
2022-08-14T14:06:48.971Z,37.00
2022-08-14T14:09:27.122Z,38.75
2022-08-14T14:12:37.431Z,37.00
2022-08-14T14:15:13.850Z,38.00
2022-08-14T14:17:44.022Z,37.00
2022-08-14T14:20:34.546Z,38.25
2022-08-14T14:23:09.332Z,37.00
2022-08-14T14:25:49.290Z,39.00
2022-08-14T14:28:40.311Z,38.00
2022-08-14T14:31:12.051Z,38.00
2022-08-14T14:33:47.474Z,37.75
2022-08-14T14:36:21.780Z,37.00
2022-08-14T14:39:09.526Z,37.00
2022-08-14T14:41:43.814Z,37.50
2022-08-14T14:44:15.662Z,37.00
2022-08-14T14:46:44.708Z,36.00
2022-08-14T14:49:13.929Z,36.75
2022-08-14T14:51:49.795Z,37.50
2022-08-14T14:54:30.269Z,37.00
2022-08-14T14:57:04.275Z,37.00
2022-08-14T14:59:37.681Z,38.00
2022-08-14T15:02:07.809Z,37.00
2022-08-14T15:04:45.522Z,36.50
2022-08-14T15:07:13.197Z,38.00
2022-08-14T15:09:43.574Z,37.00
2022-08-14T15:12:27.868Z,37.00
2022-08-14T15:15:08.412Z,36.50
2022-08-14T15:17:41.118Z,36.00
2022-08-14T15:20:17.277Z,36.00
2022-08-14T15:23:01.121Z,36.50
2022-08-14T15:25:39.493Z,37.00
2022-08-14T15:28:07.293Z,37.00
2022-08-14T15:30:40.197Z,39.50
2022-08-14T15:33:10.211Z,37.00
2022-08-14T15:35:47.854Z,37.00
2022-08-14T15:38:17.926Z,38.00
2022-08-14T15:40:45.012Z,37.00
2022-08-14T15:43:18.756Z,37.00
2022-08-14T15:45:46.260Z,37.00
2022-08-14T15:48:33.960Z,37.00
2022-08-14T15:51:02.126Z,37.00
2022-08-14T15:53:31.463Z,37.00
2022-08-14T15:55:59.587Z,36.00
2022-08-14T15:58:49.792Z,36.00
2022-08-14T16:01:43.595Z,37.00
2022-08-14T16:04:18.120Z,38.25
2022-08-14T16:06:45.162Z,37.75
2022-08-14T16:09:24.107Z,38.00
2022-08-14T16:11:53.915Z,38.50
2022-08-14T16:14:24.708Z,37.00
2022-08-14T16:17:00.596Z,36.50
2022-08-14T16:19:29.868Z,36.00
2022-08-14T16:22:57.385Z,37.00
2022-08-14T16:25:43.212Z,36.00
2022-08-14T16:28:10.827Z,36.00
2022-08-14T16:30:54.664Z,37.75
2022-08-14T16:33:27.904Z,36.50
2022-08-14T16:36:19.691Z,36.50
2022-08-14T16:39:05.590Z,37.00
2022-08-14T16:41:34.889Z,36.00
2022-08-14T16:44:05.192Z,39.00
2022-08-14T16:47:04.183Z,41.00
2022-08-14T16:50:04.528Z,40.75
2022-08-14T16:52:44.680Z,39.50
2022-08-14T16:55:16.864Z,43.75
2022-08-14T16:57:50.632Z,41.50
2022-08-14T17:00:32.945Z,40.00
2022-08-14T17:03:02.918Z,39.75
2022-08-14T17:05:50.474Z,38.00
2022-08-14T17:08:32.583Z,37.00
2022-08-14T17:11:10.928Z,36.00
2022-08-14T17:13:59.066Z,37.00
2022-08-14T17:16:31.722Z,35.00
2022-08-14T17:19:00.706Z,34.50
2022-08-14T17:21:41.761Z,34.50
2022-08-14T17:25:25.106Z,34.50
2022-08-14T17:28:51.771Z,34.00
2022-08-14T17:31:58.953Z,34.00
2022-08-14T17:34:49.248Z,34.50
2022-08-14T17:37:34.188Z,33.00
2022-08-14T17:40:16.696Z,34.00
2022-08-14T17:42:46.858Z,34.00
2022-08-14T17:45:42.996Z,34.00
2022-08-14T17:49:10.158Z,34.00
2022-08-14T17:51:16.436Z,34.00
2022-08-14T17:54:01.388Z,35.00
2022-08-14T17:56:31.899Z,34.50
2022-08-14T17:59:01.801Z,34.75
2022-08-14T18:01:36.248Z,34.50
2022-08-14T18:04:24.645Z,34.00
2022-08-14T18:07:16.122Z,34.00
2022-08-14T18:09:57.165Z,34.50
2022-08-14T18:12:31.710Z,34.00
2022-08-14T18:15:16.847Z,34.00
2022-08-14T18:17:53.106Z,35.00
2022-08-14T18:21:41.113Z,34.00
2022-08-14T18:23:13.723Z,35.00
2022-08-14T18:25:54.466Z,35.50
2022-08-14T18:28:48.623Z,34.00
2022-08-14T18:31:23.260Z,33.00
2022-08-14T18:33:54.753Z,33.75
2022-08-14T18:36:47.168Z,34.00
2022-08-14T18:39:24.522Z,34.00
2022-08-14T18:41:54.422Z,34.00
2022-08-14T18:44:52.635Z,37.25
2022-08-14T18:47:22.238Z,38.00
2022-08-14T18:50:01.014Z,35.00
2022-08-14T18:52:36.747Z,34.00
2022-08-14T18:55:16.344Z,35.00
2022-08-14T18:57:58.265Z,35.00
2022-08-14T19:00:32.854Z,34.00
2022-08-14T19:03:01.494Z,35.75
2022-08-14T19:05:37.964Z,34.75
2022-08-14T19:08:18.322Z,34.00
2022-08-14T19:10:46.854Z,33.00
2022-08-14T19:13:44.500Z,35.00
2022-08-14T19:16:23.258Z,34.00
2022-08-14T19:18:54.335Z,34.00
2022-08-14T19:21:57.150Z,33.50
2022-08-14T19:24:44.291Z,34.50
2022-08-14T19:27:24.467Z,34.50
2022-08-14T19:30:19.947Z,34.00
2022-08-14T19:32:56.059Z,34.00
2022-08-14T19:35:49.539Z,34.00
2022-08-14T19:38:52.148Z,36.00
2022-08-14T19:41:29.672Z,34.00
2022-08-14T19:44:19.343Z,34.00
2022-08-14T19:47:02.501Z,33.00
2022-08-14T19:50:25.041Z,34.00
2022-08-14T19:52:35.200Z,34.00
2022-08-14T19:55:45.700Z,35.00
2022-08-14T19:58:13.254Z,34.50
2022-08-14T20:00:52.783Z,34.00
2022-08-14T20:06:47.054Z,34.00
2022-08-14T20:11:07.361Z,35.00
2022-08-14T20:12:04.877Z,34.00
2022-08-14T20:14:36.188Z,34.00
2022-08-14T20:17:06.801Z,34.75
2022-08-14T20:19:41.702Z,33.00
2022-08-14T20:22:35.033Z,32.25
2022-08-14T20:25:16.805Z,33.00
2022-08-14T20:27:47.922Z,33.00
2022-08-14T20:30:35.033Z,33.00
2022-08-14T20:33:10.850Z,34.00
2022-08-14T20:35:38.592Z,34.00
2022-08-14T20:38:30.605Z,34.00
2022-08-14T20:41:05.678Z,33.00
2022-08-14T20:43:37.181Z,33.00
2022-08-14T20:46:16.371Z,34.00
2022-08-14T20:49:07.898Z,34.00
2022-08-14T20:51:38.326Z,34.00
2022-08-14T20:54:34.082Z,34.00
2022-08-14T20:57:14.202Z,34.25
2022-08-14T20:59:50.114Z,34.50
2022-08-14T21:02:46.349Z,34.25
2022-08-14T21:05:20.570Z,34.50
2022-08-14T21:07:50.283Z,35.00
2022-08-14T21:10:32.799Z,35.00
2022-08-14T21:13:25.873Z,36.00
2022-08-14T21:15:57.101Z,34.50
2022-08-14T21:18:31.853Z,36.00
2022-08-14T21:21:07.505Z,34.00
2022-08-14T21:23:54.726Z,34.00
2022-08-14T21:26:51.268Z,34.00
2022-08-14T21:29:49.864Z,34.00
2022-08-14T21:32:21.428Z,34.00
2022-08-14T21:34:55.335Z,34.00
2022-08-14T21:37:22.573Z,34.00
2022-08-14T21:39:57.180Z,34.00
2022-08-14T21:42:27.846Z,34.00
2022-08-14T21:44:54.987Z,33.75
2022-08-14T21:47:23.625Z,34.00
2022-08-14T21:49:50.909Z,34.50
2022-08-14T21:52:51.528Z,34.00
2022-08-14T21:55:13.164Z,34.00
2022-08-14T21:58:03.899Z,34.25
2022-08-14T22:00:39.663Z,34.00
2022-08-14T22:03:27.319Z,34.50
2022-08-14T22:06:03.051Z,34.50
2022-08-14T22:08:30.003Z,35.00
2022-08-14T22:10:57.062Z,35.25
2022-08-14T22:13:35.068Z,34.50
2022-08-14T22:17:01.975Z,34.25
2022-08-14T22:19:01.411Z,33.50
2022-08-14T22:21:28.605Z,33.50
2022-08-14T22:23:58.188Z,33.50
2022-08-14T22:26:30.711Z,34.00
2022-08-14T22:28:59.820Z,34.00
2022-08-14T22:31:39.727Z,34.50
2022-08-14T22:34:09.306Z,35.75
2022-08-14T22:36:42.430Z,34.00
2022-08-14T22:39:13.785Z,34.00
2022-08-14T22:41:43.647Z,34.00
2022-08-14T22:44:28.525Z,34.00
2022-08-14T22:46:57.462Z,34.00
2022-08-14T22:50:29.071Z,33.00
2022-08-14T22:52:32.113Z,34.00
2022-08-14T22:55:44.314Z,34.00
2022-08-14T22:58:35.844Z,35.25
2022-08-14T23:01:11.981Z,34.00
2022-08-14T23:03:42.344Z,34.50
2022-08-14T23:07:02.436Z,34.75
2022-08-14T23:09:35.195Z,33.00
2022-08-14T23:11:45.311Z,34.50
2022-08-14T23:14:13.818Z,35.00
2022-08-14T23:16:52.076Z,34.50
2022-08-14T23:19:34.898Z,34.50
2022-08-14T23:22:04.642Z,34.00
2022-08-14T23:24:31.528Z,35.00
2022-08-14T23:26:59.023Z,33.50
2022-08-14T23:29:25.913Z,36.00
2022-08-14T23:31:59.098Z,35.00
2022-08-14T23:34:29.390Z,35.00
2022-08-14T23:36:57.719Z,34.25
2022-08-14T23:39:31.244Z,34.00
2022-08-14T23:42:05.417Z,33.50
2022-08-14T23:44:35.744Z,34.00
2022-08-14T23:47:25.206Z,34.50
2022-08-14T23:50:01.347Z,34.00
2022-08-14T23:52:56.297Z,34.25
2022-08-14T23:55:27.282Z,34.50
2022-08-14T23:57:57.435Z,35.00
